createdAt,value
2019-02-18T00:00:26.603Z,4.39
2019-02-18T00:02:54.734Z,4.25
2019-02-18T00:05:23.344Z,4.30
2019-02-18T00:07:51.477Z,4.22
2019-02-18T00:10:19.292Z,4.06
2019-02-18T00:12:47.280Z,4.11
2019-02-18T00:15:15.452Z,4.07
2019-02-18T00:17:43.856Z,4.02
2019-02-18T00:20:12.025Z,3.59
2019-02-18T00:22:40.293Z,3.93
2019-02-18T00:25:08.054Z,3.80
2019-02-18T00:27:35.948Z,3.66
2019-02-18T00:30:04.323Z,3.94
2019-02-18T00:32:32.113Z,3.98
2019-02-18T00:34:59.851Z,4.04
2019-02-18T00:37:28.241Z,4.07
2019-02-18T00:39:56.094Z,4.10
2019-02-18T00:42:24.123Z,4.11
2019-02-18T00:44:52.072Z,4.10
2019-02-18T00:47:20.157Z,4.00
2019-02-18T00:49:48.148Z,4.16
2019-02-18T00:52:16.314Z,3.89
2019-02-18T00:54:44.356Z,4.16
2019-02-18T00:57:12.457Z,4.12
2019-02-18T00:59:40.979Z,4.08
2019-02-18T01:02:09.199Z,4.02
2019-02-18T01:04:37.288Z,3.94
2019-02-18T01:07:05.870Z,3.88
2019-02-18T01:09:34.000Z,3.65
2019-02-18T01:12:02.219Z,3.72
2019-02-18T01:14:30.581Z,3.57
2019-02-18T01:16:58.650Z,3.69
2019-02-18T01:19:26.751Z,3.66
2019-02-18T01:21:55.444Z,3.65
2019-02-18T01:24:23.684Z,3.66
2019-02-18T01:26:51.764Z,3.66
2019-02-18T01:29:20.138Z,3.65
2019-02-18T01:31:48.127Z,3.62
2019-02-18T01:34:16.284Z,3.57
2019-02-18T01:36:44.416Z,3.52
2019-02-18T01:39:12.272Z,3.46
2019-02-18T01:41:40.244Z,3.40
2019-02-18T01:44:08.795Z,3.16
2019-02-18T01:46:36.600Z,3.40
2019-02-18T01:49:04.565Z,3.26
2019-02-18T01:51:33.056Z,3.27
2019-02-18T01:54:01.139Z,3.35
2019-02-18T01:56:29.023Z,3.23
2019-02-18T01:58:57.479Z,3.37
2019-02-18T02:01:25.561Z,3.36
2019-02-18T02:03:53.642Z,3.30
2019-02-18T02:06:21.903Z,3.28
2019-02-18T02:08:49.982Z,3.23
2019-02-18T02:11:18.727Z,3.17
2019-02-18T02:13:47.735Z,3.09
2019-02-18T02:16:16.442Z,3.04
2019-02-18T02:18:44.473Z,2.98
2019-02-18T02:21:13.195Z,2.96
2019-02-18T02:23:41.506Z,2.93
2019-02-18T02:26:09.518Z,2.88
2019-02-18T02:28:37.870Z,2.81
2019-02-18T02:31:05.908Z,2.76
2019-02-18T02:33:34.153Z,2.72
2019-02-18T02:36:02.650Z,2.69
2019-02-18T02:38:30.833Z,2.65
2019-02-18T02:40:58.674Z,2.63
2019-02-18T02:43:27.087Z,2.58
2019-02-18T02:45:55.273Z,2.55
2019-02-18T02:48:23.189Z,2.53
2019-02-18T02:50:51.540Z,2.52
2019-02-18T02:53:19.589Z,2.54
2019-02-18T02:55:48.129Z,2.61
2019-02-18T02:58:16.746Z,2.68
2019-02-18T03:00:45.138Z,2.72
2019-02-18T03:03:13.534Z,2.72
2019-02-18T03:05:41.542Z,2.67
2019-02-18T03:08:19.858Z,2.61
2019-02-18T03:10:38.519Z,2.59
2019-02-18T03:13:06.576Z,2.63
2019-02-18T03:15:34.700Z,2.68
2019-02-18T03:18:03.034Z,2.76
2019-02-18T03:20:30.998Z,2.78
2019-02-18T03:22:59.227Z,2.82
2019-02-18T03:25:28.413Z,2.84
2019-02-18T03:28:12.508Z,2.86
2019-02-18T03:30:45.554Z,2.68
2019-02-18T03:33:16.144Z,2.76
2019-02-18T03:35:44.127Z,2.68
2019-02-18T03:38:12.387Z,2.49
2019-02-18T03:40:40.243Z,2.41
2019-02-18T03:43:08.308Z,2.48
2019-02-18T03:45:36.218Z,2.45
2019-02-18T03:48:04.299Z,2.41
2019-02-18T03:50:32.620Z,2.37
2019-02-18T03:53:00.431Z,2.31
2019-02-18T03:55:28.718Z,2.01
2019-02-18T03:57:57.148Z,2.22
2019-02-18T04:00:25.951Z,2.03
2019-02-18T04:02:54.139Z,2.13
2019-02-18T04:05:22.158Z,1.98
2019-02-18T04:07:49.980Z,2.10
2019-02-18T04:10:18.087Z,1.83
2019-02-18T04:12:46.477Z,1.86
2019-02-18T04:15:14.602Z,2.05
2019-02-18T04:17:43.970Z,2.05
2019-02-18T04:20:12.165Z,1.91
2019-02-18T04:22:40.283Z,2.02
2019-02-18T04:25:08.263Z,1.87
2019-02-18T04:27:36.447Z,1.99
2019-02-18T04:30:04.715Z,2.00
2019-02-18T04:32:32.668Z,2.01
2019-02-18T04:35:00.864Z,1.76
2019-02-18T04:37:28.629Z,2.03
2019-02-18T04:39:56.839Z,2.04
2019-02-18T04:42:25.106Z,2.05
2019-02-18T04:44:53.171Z,1.91
2019-02-18T04:47:20.913Z,1.91
2019-02-18T04:49:49.049Z,2.01
2019-02-18T04:52:17.061Z,1.99
2019-02-18T04:54:45.181Z,1.96
2019-02-18T04:57:13.710Z,1.91
2019-02-18T04:59:41.779Z,1.89
2019-02-18T05:02:09.553Z,1.84
2019-02-18T05:04:38.232Z,1.83
2019-02-18T05:07:06.549Z,1.81
2019-02-18T05:09:34.786Z,1.79
2019-02-18T05:12:03.376Z,1.78
2019-02-18T05:14:31.394Z,1.73
2019-02-18T05:16:59.344Z,1.59
2019-02-18T05:19:28.378Z,1.60
2019-02-18T05:21:57.507Z,1.68
2019-02-18T05:24:26.664Z,1.65
2019-02-18T05:26:55.864Z,1.54
2019-02-18T05:29:24.302Z,1.53
2019-02-18T05:31:52.205Z,1.68
2019-02-18T05:34:20.022Z,1.59
2019-02-18T05:36:48.017Z,1.53
2019-02-18T05:39:18.348Z,1.77
2019-02-18T05:41:44.677Z,1.76
2019-02-18T05:44:12.721Z,0.56
2019-02-18T05:46:40.912Z,1.72
2019-02-18T05:49:09.711Z,1.72
2019-02-18T05:51:38.317Z,1.57
2019-02-18T05:54:06.700Z,1.70
2019-02-18T05:56:35.110Z,1.61
2019-02-18T05:59:03.412Z,1.63
2019-02-18T06:01:31.655Z,1.61
2019-02-18T06:04:00.258Z,1.56
2019-02-18T06:06:30.151Z,1.58
2019-02-18T06:08:58.261Z,1.55
2019-02-18T06:11:26.893Z,1.15
2019-02-18T06:13:56.521Z,1.62
2019-02-18T06:16:24.549Z,1.64
2019-02-18T06:18:52.934Z,1.61
2019-02-18T06:21:20.969Z,0.72
2019-02-18T06:23:48.744Z,1.60
2019-02-18T06:26:16.864Z,1.58
2019-02-18T06:28:44.818Z,1.56
2019-02-18T06:31:12.825Z,1.54
2019-02-18T06:33:40.917Z,1.52
2019-02-18T06:36:11.614Z,0.96
2019-02-18T06:38:42.634Z,1.18
2019-02-18T06:41:12.545Z,1.44
2019-02-18T06:43:40.638Z,1.41
2019-02-18T06:46:13.064Z,1.02
2019-02-18T06:48:47.350Z,1.43
2019-02-18T06:51:17.055Z,1.44
2019-02-18T06:53:43.354Z,0.26
2019-02-18T06:56:11.649Z,1.47
2019-02-18T06:58:45.972Z,1.47
2019-02-18T07:01:35.088Z,1.46
2019-02-18T07:04:13.476Z,1.42
2019-02-18T07:07:21.617Z,1.39
2019-02-18T07:09:53.969Z,1.39
2019-02-18T07:12:26.418Z,1.39
2019-02-18T07:14:54.229Z,1.17
2019-02-18T07:17:22.440Z,1.47
2019-02-18T07:19:50.404Z,1.49
2019-02-18T07:22:18.312Z,0.63
2019-02-18T07:24:46.471Z,1.55
2019-02-18T07:27:14.745Z,1.58
2019-02-18T07:29:42.630Z,1.61
2019-02-18T07:32:10.978Z,1.66
2019-02-18T07:34:38.931Z,1.54
2019-02-18T07:37:06.724Z,1.72
2019-02-18T07:39:35.194Z,1.75
2019-02-18T07:42:03.122Z,1.42
2019-02-18T07:44:31.279Z,1.81
2019-02-18T07:46:59.042Z,1.94
2019-02-18T07:49:26.835Z,2.08
2019-02-18T07:51:54.958Z,2.23
2019-02-18T07:54:22.701Z,2.28
2019-02-18T07:56:50.500Z,2.57
2019-02-18T07:59:19.164Z,2.73
2019-02-18T08:01:47.310Z,2.92
2019-02-18T08:04:15.414Z,3.09
2019-02-18T08:06:43.684Z,3.25
2019-02-18T08:09:11.934Z,3.39
2019-02-18T08:11:40.142Z,3.55
2019-02-18T08:14:07.944Z,3.71
2019-02-18T08:16:35.884Z,3.91
2019-02-18T08:19:04.532Z,3.98
2019-02-18T08:21:32.355Z,4.34
2019-02-18T08:24:00.983Z,4.53
2019-02-18T08:26:29.208Z,4.69
2019-02-18T08:28:57.000Z,4.93
2019-02-18T08:31:25.323Z,5.14
2019-02-18T08:33:53.270Z,5.33
2019-02-18T08:36:21.001Z,5.52
2019-02-18T08:38:49.006Z,5.56
2019-02-18T08:41:16.988Z,5.88
2019-02-18T08:43:45.283Z,6.06
2019-02-18T08:46:13.205Z,6.23
2019-02-18T08:48:40.966Z,6.39
2019-02-18T08:51:09.260Z,6.14
2019-02-18T08:53:37.003Z,6.78
2019-02-18T08:56:04.891Z,6.94
2019-02-18T08:58:32.613Z,7.02
2019-02-18T09:01:02.859Z,7.06
2019-02-18T09:03:28.632Z,7.11
2019-02-18T09:05:56.561Z,7.18
2019-02-18T09:08:24.332Z,7.24
2019-02-18T09:10:52.116Z,7.33
2019-02-18T09:13:19.817Z,7.50
2019-02-18T09:15:47.898Z,7.73
2019-02-18T09:18:15.628Z,7.98
2019-02-18T09:20:43.386Z,8.23
2019-02-18T09:23:18.632Z,8.49
2019-02-18T09:25:48.768Z,8.75
2019-02-18T09:28:16.970Z,8.93
2019-02-18T09:30:47.100Z,9.09
2019-02-18T09:33:14.813Z,9.24
2019-02-18T09:35:43.136Z,9.36
2019-02-18T09:38:11.086Z,9.42
2019-02-18T09:40:45.972Z,9.48
2019-02-18T09:43:06.670Z,9.57
2019-02-18T09:45:34.428Z,9.72
2019-02-18T09:48:02.685Z,9.85
2019-02-18T09:50:30.901Z,9.82
2019-02-18T09:52:58.648Z,10.02
2019-02-18T09:55:26.917Z,10.39
2019-02-18T09:57:55.046Z,10.55
2019-02-18T10:00:23.100Z,10.76
2019-02-18T10:02:50.992Z,10.90
2019-02-18T10:05:19.046Z,11.10
2019-02-18T10:07:47.645Z,11.31
2019-02-18T10:10:15.718Z,11.13
2019-02-18T10:12:45.171Z,10.94
2019-02-18T10:15:13.009Z,11.94
2019-02-18T10:17:41.012Z,12.06
2019-02-18T10:20:09.549Z,12.06
2019-02-18T10:22:37.877Z,12.12
2019-02-18T10:25:06.717Z,12.26
2019-02-18T10:27:34.631Z,12.43
2019-02-18T10:30:03.450Z,12.63
2019-02-18T10:32:31.737Z,12.69
2019-02-18T10:34:59.856Z,12.72
2019-02-18T10:37:27.848Z,12.73
2019-02-18T10:39:56.429Z,12.99
2019-02-18T10:42:24.641Z,12.87
2019-02-18T10:44:52.469Z,13.19
2019-02-18T10:47:20.507Z,13.27
2019-02-18T10:49:48.409Z,13.38
2019-02-18T10:52:16.602Z,13.48
2019-02-18T10:54:44.668Z,12.21
2019-02-18T10:57:12.895Z,13.45
2019-02-18T10:59:41.298Z,13.45
2019-02-18T11:02:09.082Z,13.51
2019-02-18T11:04:36.874Z,13.69
2019-02-18T11:07:05.191Z,13.89
2019-02-18T11:09:35.537Z,14.12
2019-02-18T11:12:04.559Z,14.10
2019-02-18T11:14:32.433Z,14.11
2019-02-18T11:17:00.272Z,13.98
2019-02-18T11:19:31.605Z,13.99
2019-02-18T11:21:59.761Z,14.02
2019-02-18T11:24:27.837Z,13.99
2019-02-18T11:26:55.780Z,14.12
2019-02-18T11:29:23.605Z,14.29
2019-02-18T11:31:51.559Z,14.26
2019-02-18T11:34:19.572Z,14.65
2019-02-18T11:36:47.818Z,14.82
2019-02-18T11:39:15.552Z,14.93
2019-02-18T11:41:44.434Z,14.75
2019-02-18T11:44:12.613Z,15.09
2019-02-18T11:46:40.365Z,15.03
2019-02-18T11:49:08.354Z,15.30
2019-02-18T11:51:36.192Z,15.43
2019-02-18T11:54:04.552Z,15.05
2019-02-18T11:56:33.109Z,15.81
2019-02-18T11:59:01.251Z,15.92
2019-02-18T12:01:29.552Z,15.97
2019-02-18T12:03:57.525Z,15.91
2019-02-18T12:06:25.692Z,15.82
2019-02-18T12:08:54.176Z,15.87
2019-02-18T12:11:22.381Z,15.93
2019-02-18T12:13:51.251Z,16.10
2019-02-18T12:16:19.473Z,16.25
2019-02-18T12:18:47.369Z,16.22
2019-02-18T12:21:17.389Z,16.20
2019-02-18T12:23:45.554Z,16.35
2019-02-18T12:26:13.518Z,16.56
2019-02-18T12:28:41.905Z,16.74
2019-02-18T12:31:10.971Z,16.86
2019-02-18T12:33:39.002Z,17.01
2019-02-18T12:36:12.258Z,17.12
2019-02-18T12:38:41.145Z,17.08
2019-02-18T12:41:08.757Z,16.86
2019-02-18T12:43:36.845Z,16.75
2019-02-18T12:46:15.332Z,16.74
2019-02-18T12:48:35.283Z,16.24
2019-02-18T12:51:01.191Z,16.64
2019-02-18T12:53:28.953Z,16.50
2019-02-18T12:55:56.982Z,16.69
2019-02-18T12:58:24.960Z,15.72
2019-02-18T13:00:53.102Z,16.99
2019-02-18T13:03:21.180Z,17.11
2019-02-18T13:05:49.217Z,17.12
2019-02-18T13:08:17.277Z,16.97
2019-02-18T13:10:46.375Z,16.73
2019-02-18T13:13:14.468Z,17.01
2019-02-18T13:15:43.556Z,16.00
2019-02-18T13:18:11.395Z,17.06
2019-02-18T13:20:41.652Z,16.80
2019-02-18T13:23:09.622Z,16.82
2019-02-18T13:25:37.401Z,16.42
2019-02-18T13:28:08.592Z,16.38
2019-02-18T13:30:35.455Z,16.17
2019-02-18T13:33:03.833Z,15.80
2019-02-18T13:35:31.737Z,15.82
2019-02-18T13:37:59.464Z,15.71
2019-02-18T13:40:27.833Z,14.49
2019-02-18T13:42:55.619Z,15.55
2019-02-18T13:45:23.498Z,15.37
2019-02-18T13:47:51.636Z,15.42
2019-02-18T13:50:21.289Z,15.38
2019-02-18T13:52:50.845Z,15.14
2019-02-18T13:55:19.305Z,15.29
2019-02-18T13:57:47.205Z,15.26
2019-02-18T14:00:18.529Z,15.25
2019-02-18T14:02:46.825Z,15.26
2019-02-18T14:05:15.265Z,15.28
2019-02-18T14:07:43.198Z,15.27
2019-02-18T14:10:11.052Z,15.28
2019-02-18T14:12:40.535Z,15.15
2019-02-18T14:15:10.172Z,15.23
2019-02-18T14:17:38.331Z,15.21
2019-02-18T14:20:10.040Z,15.16
2019-02-18T14:22:39.128Z,15.12
2019-02-18T14:25:10.820Z,14.89
2019-02-18T14:27:39.349Z,15.05
2019-02-18T14:30:09.316Z,15.01
2019-02-18T14:32:39.135Z,14.98
2019-02-18T14:35:07.717Z,14.94
2019-02-18T14:37:38.945Z,14.51
2019-02-18T14:40:09.898Z,13.65
2019-02-18T14:42:39.241Z,14.84
2019-02-18T14:45:09.246Z,14.82
2019-02-18T14:47:37.453Z,14.81
2019-02-18T14:50:07.419Z,14.82
2019-02-18T14:52:35.892Z,14.85
2019-02-18T14:55:05.424Z,14.86
2019-02-18T14:57:37.356Z,14.85
2019-02-18T15:00:14.644Z,14.84
2019-02-18T15:02:43.815Z,14.82
2019-02-18T15:05:21.191Z,14.59
2019-02-18T15:07:51.074Z,14.78
2019-02-18T15:10:20.120Z,14.75
2019-02-18T15:12:51.521Z,13.13
2019-02-18T15:15:24.347Z,13.82
2019-02-18T15:17:56.560Z,14.66
2019-02-18T15:20:24.739Z,14.62
2019-02-18T15:22:52.840Z,14.59
2019-02-18T15:25:21.379Z,14.55
2019-02-18T15:27:49.464Z,14.30
2019-02-18T15:30:21.815Z,14.44
2019-02-18T15:32:56.149Z,14.37
2019-02-18T15:35:27.840Z,14.31
2019-02-18T15:37:58.073Z,14.24
2019-02-18T15:40:27.922Z,14.16
2019-02-18T15:42:58.226Z,14.08
2019-02-18T15:45:28.535Z,14.00
2019-02-18T15:48:13.326Z,13.83
2019-02-18T15:50:46.966Z,13.84
2019-02-18T15:53:19.632Z,13.76
2019-02-18T15:55:51.037Z,13.27
2019-02-18T15:58:27.136Z,13.60
2019-02-18T16:00:59.360Z,13.52
2019-02-18T16:03:50.773Z,13.48
2019-02-18T16:06:24.632Z,13.42
2019-02-18T16:08:54.815Z,13.33
2019-02-18T16:11:23.349Z,13.23
2019-02-18T16:13:52.531Z,13.11
2019-02-18T16:16:20.709Z,13.02
2019-02-18T16:18:52.863Z,11.38
2019-02-18T16:21:21.240Z,12.80
2019-02-18T16:23:52.944Z,12.69
2019-02-18T16:26:22.143Z,12.57
2019-02-18T16:28:50.262Z,12.43
2019-02-18T16:31:22.246Z,12.11
2019-02-18T16:33:50.847Z,12.18
2019-02-18T16:36:20.022Z,11.95
2019-02-18T16:38:52.783Z,11.95
2019-02-18T16:41:22.415Z,11.84
2019-02-18T16:43:52.933Z,11.74
2019-02-18T16:46:21.599Z,10.43
2019-02-18T16:48:50.498Z,11.32
2019-02-18T16:51:19.648Z,11.47
2019-02-18T16:53:49.668Z,11.40
2019-02-18T16:56:17.841Z,11.30
2019-02-18T16:58:46.286Z,11.23
2019-02-18T17:01:22.251Z,11.18
2019-02-18T17:03:54.185Z,11.10
2019-02-18T17:06:22.317Z,10.29
2019-02-18T17:08:54.035Z,10.95
2019-02-18T17:11:23.577Z,10.86
2019-02-18T17:13:52.573Z,10.75
2019-02-18T17:16:20.749Z,10.34
2019-02-18T17:18:49.978Z,10.47
2019-02-18T17:21:18.488Z,10.51
2019-02-18T17:23:46.953Z,10.42
2019-02-18T17:26:15.234Z,10.33
2019-02-18T17:28:46.342Z,8.71
2019-02-18T17:31:14.660Z,10.15
2019-02-18T17:33:43.105Z,10.04
2019-02-18T17:36:10.920Z,8.46
2019-02-18T17:38:39.417Z,9.85
2019-02-18T17:41:08.651Z,9.81
2019-02-18T17:43:36.646Z,9.75
2019-02-18T17:46:05.122Z,9.70
2019-02-18T17:48:33.552Z,9.66
2019-02-18T17:51:01.429Z,9.59
2019-02-18T17:53:29.550Z,9.61
2019-02-18T17:55:57.691Z,9.40
2019-02-18T17:58:26.132Z,9.62
2019-02-18T18:00:54.622Z,9.58
2019-02-18T18:03:22.517Z,9.50
2019-02-18T18:05:50.751Z,9.45
2019-02-18T18:08:18.541Z,9.38
2019-02-18T18:10:46.288Z,9.28
2019-02-18T18:13:14.527Z,9.20
2019-02-18T18:15:42.441Z,8.58
2019-02-18T18:18:11.129Z,9.20
2019-02-18T18:20:40.101Z,9.23
2019-02-18T18:23:07.841Z,9.24
2019-02-18T18:25:35.703Z,9.23
2019-02-18T18:28:03.498Z,9.20
2019-02-18T18:30:31.673Z,9.15
2019-02-18T18:33:00.870Z,9.08
2019-02-18T18:35:29.407Z,9.04
2019-02-18T18:37:59.602Z,9.04
2019-02-18T18:40:28.924Z,9.05
2019-02-18T18:42:59.600Z,9.04
2019-02-18T18:45:27.561Z,9.00
2019-02-18T18:47:55.468Z,8.94
2019-02-18T18:50:23.656Z,8.89
2019-02-18T18:52:51.429Z,8.88
2019-02-18T18:55:19.455Z,8.90
2019-02-18T18:57:47.684Z,8.95
2019-02-18T19:00:18.521Z,9.00
2019-02-18T19:02:46.746Z,9.05
2019-02-18T19:05:14.627Z,9.08
2019-02-18T19:07:43.574Z,9.11
2019-02-18T19:10:11.872Z,9.15
2019-02-18T19:12:39.865Z,9.17
2019-02-18T19:15:08.966Z,9.20
2019-02-18T19:17:37.600Z,9.23
2019-02-18T19:20:06.546Z,8.92
2019-02-18T19:22:35.074Z,9.34
2019-02-18T19:25:04.420Z,9.37
2019-02-18T19:27:32.512Z,9.33
2019-02-18T19:30:01.088Z,9.33
2019-02-18T19:32:29.162Z,9.30
2019-02-18T19:34:57.373Z,9.30
2019-02-18T19:37:25.260Z,9.31
2019-02-18T19:39:53.326Z,9.09
2019-02-18T19:42:22.086Z,9.30
2019-02-18T19:44:49.947Z,9.28
2019-02-18T19:47:17.913Z,9.24
2019-02-18T19:49:46.346Z,9.19
2019-02-18T19:52:14.910Z,9.20
2019-02-18T19:54:45.376Z,9.20
2019-02-18T19:57:14.349Z,9.20
2019-02-18T19:59:42.591Z,8.77
2019-02-18T20:02:12.955Z,8.99
2019-02-18T20:04:41.173Z,9.06
2019-02-18T20:07:09.767Z,8.76
2019-02-18T20:09:38.612Z,9.05
2019-02-18T20:12:06.686Z,9.11
2019-02-18T20:14:35.520Z,9.18
2019-02-18T20:17:05.293Z,9.20
2019-02-18T20:19:33.200Z,9.20
2019-02-18T20:22:03.390Z,9.17
2019-02-18T20:24:31.794Z,9.16
2019-02-18T20:27:00.827Z,9.17
2019-02-18T20:29:29.451Z,9.15
2019-02-18T20:31:58.437Z,9.10
2019-02-18T20:34:27.186Z,9.05
2019-02-18T20:36:55.414Z,8.99
2019-02-18T20:39:24.177Z,8.94
2019-02-18T20:41:55.559Z,8.93
2019-02-18T20:44:23.410Z,8.93
2019-02-18T20:46:53.403Z,8.88
2019-02-18T20:49:22.067Z,8.83
2019-02-18T20:51:50.367Z,8.76
2019-02-18T20:54:18.539Z,8.70
2019-02-18T20:56:46.877Z,8.65
2019-02-18T20:59:15.520Z,8.62
2019-02-18T21:01:43.951Z,8.61
2019-02-18T21:04:12.080Z,8.15
2019-02-18T21:06:41.399Z,8.69
2019-02-18T21:09:09.835Z,8.65
2019-02-18T21:11:38.002Z,8.65
2019-02-18T21:14:06.693Z,8.62
2019-02-18T21:16:35.185Z,8.24
2019-02-18T21:19:08.387Z,8.54
2019-02-18T21:21:37.803Z,8.49
2019-02-18T21:24:08.254Z,8.43
2019-02-18T21:26:36.803Z,7.98
2019-02-18T21:29:07.794Z,7.76
2019-02-18T21:31:38.728Z,8.15
2019-02-18T21:34:09.625Z,8.10
2019-02-18T21:36:37.690Z,8.07
2019-02-18T21:39:15.110Z,7.25
2019-02-18T21:41:52.809Z,8.01
2019-02-18T21:44:25.417Z,7.97
2019-02-18T21:46:51.132Z,7.90
2019-02-18T21:49:19.014Z,7.85
2019-02-18T21:51:48.865Z,7.78
2019-02-18T21:54:17.898Z,7.70
2019-02-18T21:56:46.618Z,7.68
2019-02-18T21:59:14.874Z,7.62
2019-02-18T22:01:42.736Z,7.56
2019-02-18T22:04:15.258Z,7.25
2019-02-18T22:06:43.697Z,7.40
2019-02-18T22:09:12.111Z,7.33
2019-02-18T22:11:40.177Z,7.25
2019-02-18T22:14:08.988Z,7.19
2019-02-18T22:16:38.443Z,6.05
2019-02-18T22:19:07.081Z,7.08
2019-02-18T22:21:35.541Z,7.00
2019-02-18T22:24:06.554Z,6.92
2019-02-18T22:26:34.999Z,6.88
2019-02-18T22:31:31.630Z,6.86
2019-02-18T22:33:59.632Z,6.87
2019-02-18T22:36:29.900Z,6.88
2019-02-18T22:38:58.964Z,6.89
2019-02-18T22:41:26.953Z,6.63
2019-02-18T22:43:55.194Z,6.87
2019-02-18T22:46:24.865Z,6.86
2019-02-18T22:48:54.103Z,6.61
2019-02-18T22:51:22.740Z,6.84
2019-02-18T22:53:52.346Z,6.80
2019-02-18T22:56:20.176Z,6.76
2019-02-18T22:58:51.555Z,6.70
2019-02-18T23:01:24.283Z,6.66
2019-02-18T23:03:53.878Z,6.65
2019-02-18T23:06:22.831Z,6.37
2019-02-18T23:08:52.721Z,6.62
2019-02-18T23:11:27.163Z,6.57
2019-02-18T23:13:56.252Z,5.39
2019-02-18T23:16:25.140Z,6.45
2019-02-18T23:18:54.227Z,6.27
2019-02-18T23:21:22.099Z,6.07
2019-02-18T23:23:50.896Z,6.26
2019-02-18T23:26:23.789Z,6.22
2019-02-18T23:28:53.147Z,6.17
2019-02-18T23:31:21.552Z,6.09
2019-02-18T23:33:50.037Z,6.00
2019-02-18T23:36:18.241Z,5.91
2019-02-18T23:38:47.330Z,5.90
2019-02-18T23:41:15.379Z,5.60
2019-02-18T23:43:44.287Z,5.77
2019-02-18T23:46:13.601Z,5.71
2019-02-18T23:48:41.780Z,5.63
2019-02-18T23:51:11.517Z,5.60
2019-02-18T23:53:39.500Z,5.57
2019-02-18T23:56:08.664Z,5.34
2019-02-18T23:58:37.666Z,5.52
